Spar Lyra — LAZP5 — position and weather

sailwx.info

Track history (hours):
 
Tides and Currents Weather Stations Pressure Air Temp Water Temp Dewpoint Dewpoint Depression Visibility Wind Speed Wind Dir Waves Ship Positions

Spar Lyra

Last reported at 2017-Nov-17 15:04 UTC. Time now 2017-Nov-18 15:29 UTC.
Position N 35°50' E 014°37'.

Length 190 m; draft 12.3 m.

Type: Cargo ship. MMSI: 257316000.

Date/timePositionNaut miles runAvg speedWind from/ knotsBaromVisibWave heightAir tempDewpointWater temp
2017-Nov-17 15:04N 35°50' E 014°37'1 0.2
2017-Nov-17 08:22N 35°50' E 014°36'0 0.0
2017-Nov-17 07:37N 35°50' E 014°36'0 0.1
2017-Nov-17 07:22N 35°50' E 014°36'0 0.0
2017-Nov-17 06:43N 35°50' E 014°36'0 0.1
2017-Nov-17 06:19N 35°50' E 014°36'0 0.0
2017-Nov-17 04:52N 35°50' E 014°36'0 0.0
2017-Nov-17 04:28N 35°50' E 014°36'0 0.0
2017-Nov-17 03:55N 35°50' E 014°36'0 0.0
2017-Nov-17 02:10N 35°50' E 014°36'0 0.2
2017-Nov-17 01:46N 35°50' E 014°36'0 0.1
2017-Nov-17 01:12N 35°50' E 014°36'0 0.3
2017-Nov-17 00:52N 35°50' E 014°36'0 0.0
2017-Nov-16 21:46N 35°50' E 014°36'0 0.0
2017-Nov-16 21:25N 35°50' E 014°36'0 0.0
2017-Nov-16 18:49N 35°50' E 014°36'0 0.0
2017-Nov-16 11:04N 35°50' E 014°36'0 0.2
2017-Nov-16 10:32N 35°50' E 014°36'0 2.6
2017-Nov-16 10:28N 35°50' E 014°36'2 4.0
2017-Nov-16 10:00N 35°50' E 014°38'3 5.3
2017-Nov-16 09:29N 35°49' E 014°42'2 4.4
2017-Nov-16 09:01N 35°51' E 014°42'5 9.7
2017-Nov-16 08:27N 35°57' E 014°42'4 9.7
2017-Nov-16 08:00N 35°60' E 014°38'611.7
2017-Nov-16 07:30N 36°03' E 014°32'612.4
2017-Nov-16 07:00N 36°06' E 014°26'612.2
2017-Nov-16 06:30N 36°09' E 014°19'612.0
2017-Nov-16 06:00N 36°11' E 014°12'612.0
2017-Nov-16 05:30N 36°14' E 014°05'611.7
2017-Nov-16 05:00N 36°16' E 013°59'611.8
2017-Nov-16 04:30N 36°18' E 013°52'611.6
2017-Nov-16 03:59N 36°21' E 013°45'  
2017-Nov-12 17:26N 36°00' W 005°13'716.2
2017-Nov-12 17:00N 35°59' W 005°21'815.4
2017-Nov-12 16:30N 35°57' W 005°31'39111.2
2017-Nov-11 05:40N 31°19' W 011°01'2 9.7
2017-Nov-11 05:30N 31°18' W 011°02'187 8.1
2017-Nov-10 06:26N 28°41' W 012°58'4 9.7
2017-Nov-10 06:00N 28°37' W 013°00'510.1
2017-Nov-10 05:30N 28°33' W 013°04'7110.9
2017-Nov-09 23:01N 27°36' W 013°51'210.5
2017-Nov-09 22:49N 27°35' W 013°53'310.6
2017-Nov-09 22:31N 27°32' W 013°55'510.6
2017-Nov-09 22:00N 27°28' W 013°59'511.0
2017-Nov-09 21:30N 27°24' W 014°03'911.4
2017-Nov-09 20:45N 27°17' W 014°10'311.7
2017-Nov-09 20:29N 27°15' W 014°12'  
Track history (hours):
 
Tides and Currents Weather Stations Pressure Air Temp Water Temp Dewpoint Dewpoint Depression Visibility Wind Speed Wind Dir Waves Ship Positions

Spar Lyra

Last reported at 2017-Nov-17 15:04 UTC. Time now 2017-Nov-18 15:29 UTC.
Position N 35°50' E 014°37'.

Length 190 m; draft 12.3 m.

Type: Cargo ship. MMSI: 257316000.

Date/timePositionNaut miles runAvg speedWind from/ knotsBaromVisibWave heightAir tempDewpointWater temp
2017-Nov-17 15:04N 35°50' E 014°37'1 0.2
2017-Nov-17 08:22N 35°50' E 014°36'0 0.0
2017-Nov-17 07:37N 35°50' E 014°36'0 0.1
2017-Nov-17 07:22N 35°50' E 014°36'0 0.0
2017-Nov-17 06:43N 35°50' E 014°36'0 0.1
2017-Nov-17 06:19N 35°50' E 014°36'0 0.0
2017-Nov-17 04:52N 35°50' E 014°36'0 0.0
2017-Nov-17 04:28N 35°50' E 014°36'0 0.0
2017-Nov-17 03:55N 35°50' E 014°36'0 0.0
2017-Nov-17 02:10N 35°50' E 014°36'0 0.2
2017-Nov-17 01:46N 35°50' E 014°36'0 0.1
2017-Nov-17 01:12N 35°50' E 014°36'0 0.3
2017-Nov-17 00:52N 35°50' E 014°36'0 0.0
2017-Nov-16 21:46N 35°50' E 014°36'0 0.0
2017-Nov-16 21:25N 35°50' E 014°36'0 0.0
2017-Nov-16 18:49N 35°50' E 014°36'0 0.0
2017-Nov-16 11:04N 35°50' E 014°36'0 0.2
2017-Nov-16 10:32N 35°50' E 014°36'0 2.6
2017-Nov-16 10:28N 35°50' E 014°36'2 4.0
2017-Nov-16 10:00N 35°50' E 014°38'3 5.3
2017-Nov-16 09:29N 35°49' E 014°42'2 4.4
2017-Nov-16 09:01N 35°51' E 014°42'5 9.7
2017-Nov-16 08:27N 35°57' E 014°42'4 9.7
2017-Nov-16 08:00N 35°60' E 014°38'611.7
2017-Nov-16 07:30N 36°03' E 014°32'612.4
2017-Nov-16 07:00N 36°06' E 014°26'612.2
2017-Nov-16 06:30N 36°09' E 014°19'612.0
2017-Nov-16 06:00N 36°11' E 014°12'612.0
2017-Nov-16 05:30N 36°14' E 014°05'611.7
2017-Nov-16 05:00N 36°16' E 013°59'611.8
2017-Nov-16 04:30N 36°18' E 013°52'611.6
2017-Nov-16 03:59N 36°21' E 013°45'  
2017-Nov-12 17:26N 36°00' W 005°13'716.2
2017-Nov-12 17:00N 35°59' W 005°21'815.4
2017-Nov-12 16:30N 35°57' W 005°31'39111.2
2017-Nov-11 05:40N 31°19' W 011°01'2 9.7
2017-Nov-11 05:30N 31°18' W 011°02'187 8.1
2017-Nov-10 06:26N 28°41' W 012°58'4 9.7
2017-Nov-10 06:00N 28°37' W 013°00'510.1
2017-Nov-10 05:30N 28°33' W 013°04'7110.9
2017-Nov-09 23:01N 27°36' W 013°51'210.5
2017-Nov-09 22:49N 27°35' W 013°53'310.6
2017-Nov-09 22:31N 27°32' W 013°55'510.6
2017-Nov-09 22:00N 27°28' W 013°59'511.0
2017-Nov-09 21:30N 27°24' W 014°03'911.4
2017-Nov-09 20:45N 27°17' W 014°10'311.7
2017-Nov-09 20:29N 27°15' W 014°12'  

Dump ship's entire track history